sensor_id;sensor_type;location;lat;lon;timestamp;P1;durP1;ratioP1;P2;durP2;ratioP2
8104;SDS011;4095;48.942;9.104;2023-06-22T00:01:23;6.05;;;5.43;;
8104;SDS011;4095;48.942;9.104;2023-06-22T00:03:49;6.65;;;5.57;;
8104;SDS011;4095;48.942;9.104;2023-06-22T00:06:15;5.68;;;5.18;;
8104;SDS011;4095;48.942;9.104;2023-06-22T00:08:40;5.78;;;5.28;;
8104;SDS011;4095;48.942;9.104;2023-06-22T00:11:06;8.15;;;5.85;;
8104;SDS011;4095;48.942;9.104;2023-06-22T00:13:31;7.47;;;6.47;;
8104;SDS011;4095;48.942;9.104;2023-06-22T00:15:57;7.82;;;5.80;;
8104;SDS011;4095;48.942;9.104;2023-06-22T00:18:23;9.40;;;6.40;;
8104;SDS011;4095;48.942;9.104;2023-06-22T00:20:52;8.20;;;6.50;;
8104;SDS011;4095;48.942;9.104;2023-06-22T00:23:22;8.10;;;6.53;;
8104;SDS011;4095;48.942;9.104;2023-06-22T00:25:50;6.97;;;6.28;;
8104;SDS011;4095;48.942;9.104;2023-06-22T00:28:15;7.57;;;6.22;;
8104;SDS011;4095;48.942;9.104;2023-06-22T00:30:41;7.47;;;6.65;;
8104;SDS011;4095;48.942;9.104;2023-06-22T00:33:06;7.67;;;6.87;;
8104;SDS011;4095;48.942;9.104;2023-06-22T00:35:32;7.70;;;6.75;;
8104;SDS011;4095;48.942;9.104;2023-06-22T00:37:59;7.63;;;6.15;;
8104;SDS011;4095;48.942;9.104;2023-06-22T00:40:29;7.55;;;6.40;;
8104;SDS011;4095;48.942;9.104;2023-06-22T00:42:56;7.57;;;6.78;;
8104;SDS011;4095;48.942;9.104;2023-06-22T00:45:22;8.32;;;7.53;;
8104;SDS011;4095;48.942;9.104;2023-06-22T00:47:52;8.02;;;6.45;;
8104;SDS011;4095;48.942;9.104;2023-06-22T00:50:22;8.85;;;7.65;;
8104;SDS011;4095;48.942;9.104;2023-06-22T00:52:53;10.95;;;7.45;;
8104;SDS011;4095;48.942;9.104;2023-06-22T00:55:22;8.15;;;7.00;;
8104;SDS011;4095;48.942;9.104;2023-06-22T00:57:48;8.45;;;7.18;;
8104;SDS011;4095;48.942;9.104;2023-06-22T01:00:15;7.20;;;6.50;;
8104;SDS011;4095;48.942;9.104;2023-06-22T01:02:45;7.35;;;6.60;;
8104;SDS011;4095;48.942;9.104;2023-06-22T01:05:14;8.52;;;5.95;;
8104;SDS011;4095;48.942;9.104;2023-06-22T01:08:01;6.97;;;6.30;;
8104;SDS011;4095;48.942;9.104;2023-06-22T01:13:13;6.95;;;5.90;;
8104;SDS011;4095;48.942;9.104;2023-06-22T01:18:17;7.47;;;6.80;;
8104;SDS011;4095;48.942;9.104;2023-06-22T01:20:44;6.97;;;6.38;;
8104;SDS011;4095;48.942;9.104;2023-06-22T01:28:50;7.80;;;6.93;;
8104;SDS011;4095;48.942;9.104;2023-06-22T01:31:19;10.77;;;6.30;;
8104;SDS011;4095;48.942;9.104;2023-06-22T01:33:52;7.35;;;6.40;;
8104;SDS011;4095;48.942;9.104;2023-06-22T01:36:21;8.35;;;7.03;;
8104;SDS011;4095;48.942;9.104;2023-06-22T01:38:47;11.35;;;6.80;;
8104;SDS011;4095;48.942;9.104;2023-06-22T01:41:14;7.38;;;6.30;;
8104;SDS011;4095;48.942;9.104;2023-06-22T01:43:41;7.32;;;6.50;;
8104;SDS011;4095;48.942;9.104;2023-06-22T01:46:08;7.57;;;6.40;;
8104;SDS011;4095;48.942;9.104;2023-06-22T01:48:36;8.13;;;6.65;;
8104;SDS011;4095;48.942;9.104;2023-06-22T01:51:03;7.25;;;6.53;;
8104;SDS011;4095;48.942;9.104;2023-06-22T01:53:29;7.07;;;6.30;;
8104;SDS011;4095;48.942;9.104;2023-06-22T01:55:55;7.10;;;6.40;;
8104;SDS011;4095;48.942;9.104;2023-06-22T01:58:23;7.90;;;6.97;;
8104;SDS011;4095;48.942;9.104;2023-06-22T02:01:00;7.40;;;6.30;;
8104;SDS011;4095;48.942;9.104;2023-06-22T02:03:31;8.80;;;7.28;;
8104;SDS011;4095;48.942;9.104;2023-06-22T02:06:05;9.80;;;7.28;;
8104;SDS011;4095;48.942;9.104;2023-06-22T02:09:07;7.65;;;6.70;;
8104;SDS011;4095;48.942;9.104;2023-06-22T02:11:27;8.38;;;7.55;;
8104;SDS011;4095;48.942;9.104;2023-06-22T02:13:54;8.63;;;6.80;;
8104;SDS011;4095;48.942;9.104;2023-06-22T02:16:22;8.00;;;7.20;;
8104;SDS011;4095;48.942;9.104;2023-06-22T02:18:51;10.60;;;6.83;;
8104;SDS011;4095;48.942;9.104;2023-06-22T02:21:17;7.88;;;6.57;;
8104;SDS011;4095;48.942;9.104;2023-06-22T02:23:43;7.57;;;6.88;;
8104;SDS011;4095;48.942;9.104;2023-06-22T02:26:09;7.93;;;6.70;;
8104;SDS011;4095;48.942;9.104;2023-06-22T02:28:34;6.65;;;6.05;;
8104;SDS011;4095;48.942;9.104;2023-06-22T02:31:00;7.03;;;6.32;;
8104;SDS011;4095;48.942;9.104;2023-06-22T02:33:26;7.30;;;6.53;;
8104;SDS011;4095;48.942;9.104;2023-06-22T02:35:52;8.20;;;7.23;;
8104;SDS011;4095;48.942;9.104;2023-06-22T02:38:18;8.10;;;6.53;;
8104;SDS011;4095;48.942;9.104;2023-06-22T02:40:44;8.50;;;6.53;;
8104;SDS011;4095;48.942;9.104;2023-06-22T02:43:10;9.97;;;6.60;;
8104;SDS011;4095;48.942;9.104;2023-06-22T02:45:35;10.57;;;6.80;;
8104;SDS011;4095;48.942;9.104;2023-06-22T02:48:01;8.98;;;6.70;;
8104;SDS011;4095;48.942;9.104;2023-06-22T02:50:27;7.33;;;6.43;;
8104;SDS011;4095;48.942;9.104;2023-06-22T02:52:52;8.33;;;6.67;;
8104;SDS011;4095;48.942;9.104;2023-06-22T02:55:18;9.37;;;7.37;;
8104;SDS011;4095;48.942;9.104;2023-06-22T02:57:43;9.13;;;7.55;;
8104;SDS011;4095;48.942;9.104;2023-06-22T03:00:12;9.65;;;7.45;;
8104;SDS011;4095;48.942;9.104;2023-06-22T03:02:45;9.25;;;7.00;;
8104;SDS011;4095;48.942;9.104;2023-06-22T03:05:12;10.73;;;7.93;;
8104;SDS011;4095;48.942;9.104;2023-06-22T03:07:43;9.77;;;7.43;;
8104;SDS011;4095;48.942;9.104;2023-06-22T03:10:09;16.10;;;8.10;;
8104;SDS011;4095;48.942;9.104;2023-06-22T03:12:36;10.20;;;8.13;;
8104;SDS011;4095;48.942;9.104;2023-06-22T03:15:03;9.35;;;8.43;;
8104;SDS011;4095;48.942;9.104;2023-06-22T03:17:33;9.67;;;7.73;;
8104;SDS011;4095;48.942;9.104;2023-06-22T03:20:00;9.60;;;8.00;;
8104;SDS011;4095;48.942;9.104;2023-06-22T03:22:26;12.40;;;8.33;;
8104;SDS011;4095;48.942;9.104;2023-06-22T03:24:51;10.93;;;8.80;;
8104;SDS011;4095;48.942;9.104;2023-06-22T03:27:17;13.17;;;8.40;;
8104;SDS011;4095;48.942;9.104;2023-06-22T03:29:43;11.37;;;7.87;;
8104;SDS011;4095;48.942;9.104;2023-06-22T03:32:09;10.83;;;8.00;;
8104;SDS011;4095;48.942;9.104;2023-06-22T03:34:35;9.33;;;8.17;;
8104;SDS011;4095;48.942;9.104;2023-06-22T03:37:03;9.07;;;8.10;;
8104;SDS011;4095;48.942;9.104;2023-06-22T03:39:29;10.40;;;7.97;;
8104;SDS011;4095;48.942;9.104;2023-06-22T03:41:55;10.93;;;8.37;;
8104;SDS011;4095;48.942;9.104;2023-06-22T03:44:20;9.07;;;8.13;;
8104;SDS011;4095;48.942;9.104;2023-06-22T03:46:46;10.60;;;8.83;;
8104;SDS011;4095;48.942;9.104;2023-06-22T03:49:11;10.40;;;7.63;;
8104;SDS011;4095;48.942;9.104;2023-06-22T03:51:37;11.73;;;8.30;;
8104;SDS011;4095;48.942;9.104;2023-06-22T03:54:03;10.93;;;7.97;;
8104;SDS011;4095;48.942;9.104;2023-06-22T03:56:28;9.83;;;8.33;;
8104;SDS011;4095;48.942;9.104;2023-06-22T03:58:54;10.33;;;8.20;;
8104;SDS011;4095;48.942;9.104;2023-06-22T04:01:19;9.60;;;8.30;;
8104;SDS011;4095;48.942;9.104;2023-06-22T04:03:45;9.50;;;8.47;;
8104;SDS011;4095;48.942;9.104;2023-06-22T04:06:13;11.80;;;8.30;;
8104;SDS011;4095;48.942;9.104;2023-06-22T04:08:38;13.93;;;9.03;;
8104;SDS011;4095;48.942;9.104;2023-06-22T04:11:04;10.00;;;8.60;;
8104;SDS011;4095;48.942;9.104;2023-06-22T04:13:30;11.30;;;8.63;;
8104;SDS011;4095;48.942;9.104;2023-06-22T04:15:55;9.80;;;8.80;;
8104;SDS011;4095;48.942;9.104;2023-06-22T04:18:21;10.87;;;8.70;;
8104;SDS011;4095;48.942;9.104;2023-06-22T04:20:46;9.60;;;8.47;;
8104;SDS011;4095;48.942;9.104;2023-06-22T04:23:12;10.17;;;8.00;;
8104;SDS011;4095;48.942;9.104;2023-06-22T04:25:38;12.53;;;9.00;;
8104;SDS011;4095;48.942;9.104;2023-06-22T04:28:04;10.93;;;8.30;;
8104;SDS011;4095;48.942;9.104;2023-06-22T04:30:30;11.17;;;8.10;;
8104;SDS011;4095;48.942;9.104;2023-06-22T04:32:57;10.50;;;7.70;;
8104;SDS011;4095;48.942;9.104;2023-06-22T04:35:23;9.47;;;7.83;;
8104;SDS011;4095;48.942;9.104;2023-06-22T04:37:49;9.37;;;8.47;;
8104;SDS011;4095;48.942;9.104;2023-06-22T04:40:20;10.27;;;9.07;;
8104;SDS011;4095;48.942;9.104;2023-06-22T04:42:47;10.63;;;9.53;;
8104;SDS011;4095;48.942;9.104;2023-06-22T04:45:17;10.00;;;9.00;;
8104;SDS011;4095;48.942;9.104;2023-06-22T04:47:43;10.20;;;8.67;;
8104;SDS011;4095;48.942;9.104;2023-06-22T04:50:10;13.80;;;9.13;;
8104;SDS011;4095;48.942;9.104;2023-06-22T04:52:36;9.35;;;8.32;;
8104;SDS011;4095;48.942;9.104;2023-06-22T04:55:02;10.88;;;8.35;;
8104;SDS011;4095;48.942;9.104;2023-06-22T04:57:28;11.50;;;8.68;;
8104;SDS011;4095;48.942;9.104;2023-06-22T04:59:58;9.65;;;8.38;;
8104;SDS011;4095;48.942;9.104;2023-06-22T05:02:36;9.27;;;8.38;;
8104;SDS011;4095;48.942;9.104;2023-06-22T05:05:02;9.55;;;8.52;;
8104;SDS011;4095;48.942;9.104;2023-06-22T05:07:32;9.65;;;8.65;;
8104;SDS011;4095;48.942;9.104;2023-06-22T05:10:04;9.63;;;7.72;;
8104;SDS011;4095;48.942;9.104;2023-06-22T05:12:30;10.20;;;8.95;;
8104;SDS011;4095;48.942;9.104;2023-06-22T05:14:55;9.55;;;8.55;;
8104;SDS011;4095;48.942;9.104;2023-06-22T05:17:21;10.50;;;8.27;;
8104;SDS011;4095;48.942;9.104;2023-06-22T05:19:47;10.15;;;8.50;;
8104;SDS011;4095;48.942;9.104;2023-06-22T05:22:14;10.00;;;9.00;;
8104;SDS011;4095;48.942;9.104;2023-06-22T05:24:40;11.02;;;9.07;;
8104;SDS011;4095;48.942;9.104;2023-06-22T05:27:06;9.65;;;8.65;;
8104;SDS011;4095;48.942;9.104;2023-06-22T05:29:31;10.38;;;8.32;;
8104;SDS011;4095;48.942;9.104;2023-06-22T05:31:57;11.27;;;8.90;;
8104;SDS011;4095;48.942;9.104;2023-06-22T05:34:22;11.10;;;8.57;;
8104;SDS011;4095;48.942;9.104;2023-06-22T05:36:48;9.95;;;8.10;;
8104;SDS011;4095;48.942;9.104;2023-06-22T05:39:14;8.98;;;8.18;;
8104;SDS011;4095;48.942;9.104;2023-06-22T05:41:40;8.70;;;7.90;;
8104;SDS011;4095;48.942;9.104;2023-06-22T05:44:06;8.90;;;7.82;;
8104;SDS011;4095;48.942;9.104;2023-06-22T05:46:31;9.15;;;8.25;;
8104;SDS011;4095;48.942;9.104;2023-06-22T05:48:57;8.55;;;7.75;;
8104;SDS011;4095;48.942;9.104;2023-06-22T05:51:23;11.43;;;8.05;;
8104;SDS011;4095;48.942;9.104;2023-06-22T05:53:48;9.30;;;7.80;;
8104;SDS011;4095;48.942;9.104;2023-06-22T05:56:18;9.00;;;8.13;;
8104;SDS011;4095;48.942;9.104;2023-06-22T05:58:43;8.45;;;7.55;;
8104;SDS011;4095;48.942;9.104;2023-06-22T06:01:10;13.88;;;7.82;;
8104;SDS011;4095;48.942;9.104;2023-06-22T06:03:36;9.63;;;8.27;;
8104;SDS011;4095;48.942;9.104;2023-06-22T06:06:06;10.50;;;7.45;;
8104;SDS011;4095;48.942;9.104;2023-06-22T06:08:32;7.55;;;6.72;;
8104;SDS011;4095;48.942;9.104;2023-06-22T06:10:58;8.38;;;7.53;;
8104;SDS011;4095;48.942;9.104;2023-06-22T06:13:23;8.70;;;7.82;;
8104;SDS011;4095;48.942;9.104;2023-06-22T06:15:49;10.75;;;7.05;;
8104;SDS011;4095;48.942;9.104;2023-06-22T06:18:16;7.93;;;7.10;;
8104;SDS011;4095;48.942;9.104;2023-06-22T06:20:42;10.15;;;7.10;;
8104;SDS011;4095;48.942;9.104;2023-06-22T06:23:08;7.43;;;6.45;;
8104;SDS011;4095;48.942;9.104;2023-06-22T06:25:33;8.73;;;6.68;;
8104;SDS011;4095;48.942;9.104;2023-06-22T06:27:59;8.60;;;7.53;;
8104;SDS011;4095;48.942;9.104;2023-06-22T06:30:24;10.45;;;7.47;;
8104;SDS011;4095;48.942;9.104;2023-06-22T06:32:50;7.78;;;6.93;;
8104;SDS011;4095;48.942;9.104;2023-06-22T06:35:16;10.45;;;7.38;;
8104;SDS011;4095;48.942;9.104;2023-06-22T06:37:44;8.50;;;7.22;;
8104;SDS011;4095;48.942;9.104;2023-06-22T06:40:11;9.07;;;6.53;;
8104;SDS011;4095;48.942;9.104;2023-06-22T06:42:38;7.20;;;6.50;;
8104;SDS011;4095;48.942;9.104;2023-06-22T06:45:15;8.35;;;6.45;;
8104;SDS011;4095;48.942;9.104;2023-06-22T06:47:45;7.28;;;6.57;;
8104;SDS011;4095;48.942;9.104;2023-06-22T06:50:11;7.43;;;6.38;;
8104;SDS011;4095;48.942;9.104;2023-06-22T06:52:37;7.28;;;6.45;;
8104;SDS011;4095;48.942;9.104;2023-06-22T06:55:03;7.50;;;6.00;;
8104;SDS011;4095;48.942;9.104;2023-06-22T06:57:30;10.48;;;5.97;;
8104;SDS011;4095;48.942;9.104;2023-06-22T06:59:56;8.90;;;6.78;;
8104;SDS011;4095;48.942;9.104;2023-06-22T07:02:22;7.78;;;6.60;;
8104;SDS011;4095;48.942;9.104;2023-06-22T07:04:48;8.63;;;5.80;;
8104;SDS011;4095;48.942;9.104;2023-06-22T07:07:14;7.00;;;6.30;;
8104;SDS011;4095;48.942;9.104;2023-06-22T07:09:40;6.75;;;5.45;;
8104;SDS011;4095;48.942;9.104;2023-06-22T07:12:06;7.00;;;5.63;;
8104;SDS011;4095;48.942;9.104;2023-06-22T07:14:32;7.47;;;5.70;;
8104;SDS011;4095;48.942;9.104;2023-06-22T07:16:58;6.47;;;5.75;;
8104;SDS011;4095;48.942;9.104;2023-06-22T07:19:24;5.82;;;5.25;;
8104;SDS011;4095;48.942;9.104;2023-06-22T07:21:51;6.55;;;5.20;;
8104;SDS011;4095;48.942;9.104;2023-06-22T07:24:16;6.05;;;5.15;;
8104;SDS011;4095;48.942;9.104;2023-06-22T07:26:42;7.30;;;5.55;;
8104;SDS011;4095;48.942;9.104;2023-06-22T07:29:10;6.53;;;5.20;;
8104;SDS011;4095;48.942;9.104;2023-06-22T07:31:36;7.93;;;5.50;;
8104;SDS011;4095;48.942;9.104;2023-06-22T07:34:02;6.30;;;5.70;;
8104;SDS011;4095;48.942;9.104;2023-06-22T07:36:29;12.45;;;4.93;;
8104;SDS011;4095;48.942;9.104;2023-06-22T07:38:55;6.82;;;5.10;;
8104;SDS011;4095;48.942;9.104;2023-06-22T07:41:20;6.13;;;5.25;;
8104;SDS011;4095;48.942;9.104;2023-06-22T07:43:46;10.07;;;5.32;;
8104;SDS011;4095;48.942;9.104;2023-06-22T07:46:12;7.50;;;4.85;;
8104;SDS011;4095;48.942;9.104;2023-06-22T07:48:38;6.50;;;4.60;;
8104;SDS011;4095;48.942;9.104;2023-06-22T07:51:04;6.88;;;4.40;;
8104;SDS011;4095;48.942;9.104;2023-06-22T07:53:31;6.57;;;4.85;;
8104;SDS011;4095;48.942;9.104;2023-06-22T07:55:56;6.07;;;4.85;;
8104;SDS011;4095;48.942;9.104;2023-06-22T07:58:22;5.97;;;4.80;;
8104;SDS011;4095;48.942;9.104;2023-06-22T08:00:47;9.85;;;5.13;;
8104;SDS011;4095;48.942;9.104;2023-06-22T08:03:14;7.22;;;4.82;;
8104;SDS011;4095;48.942;9.104;2023-06-22T08:05:40;6.00;;;5.40;;
8104;SDS011;4095;48.942;9.104;2023-06-22T08:08:05;5.68;;;5.05;;
8104;SDS011;4095;48.942;9.104;2023-06-22T08:10:31;6.22;;;5.10;;
8104;SDS011;4095;48.942;9.104;2023-06-22T08:12:56;5.85;;;4.80;;
8104;SDS011;4095;48.942;9.104;2023-06-22T08:15:22;5.28;;;4.60;;
8104;SDS011;4095;48.942;9.104;2023-06-22T08:17:48;9.45;;;5.20;;
8104;SDS011;4095;48.942;9.104;2023-06-22T08:20:13;7.65;;;4.88;;
8104;SDS011;4095;48.942;9.104;2023-06-22T08:22:40;7.57;;;4.97;;
8104;SDS011;4095;48.942;9.104;2023-06-22T08:25:06;6.95;;;4.97;;
8104;SDS011;4095;48.942;9.104;2023-06-22T08:27:32;8.38;;;5.43;;
8104;SDS011;4095;48.942;9.104;2023-06-22T08:29:58;5.43;;;4.53;;
8104;SDS011;4095;48.942;9.104;2023-06-22T08:32:25;8.02;;;4.75;;
8104;SDS011;4095;48.942;9.104;2023-06-22T08:34:52;5.28;;;4.78;;
8104;SDS011;4095;48.942;9.104;2023-06-22T08:37:19;7.28;;;5.00;;
8104;SDS011;4095;48.942;9.104;2023-06-22T08:39:45;6.15;;;5.25;;
8104;SDS011;4095;48.942;9.104;2023-06-22T08:42:11;7.90;;;4.82;;
8104;SDS011;4095;48.942;9.104;2023-06-22T08:44:37;7.07;;;4.78;;
8104;SDS011;4095;48.942;9.104;2023-06-22T08:47:02;8.82;;;5.00;;
8104;SDS011;4095;48.942;9.104;2023-06-22T08:49:28;6.93;;;5.30;;
8104;SDS011;4095;48.942;9.104;2023-06-22T08:51:54;6.70;;;5.28;;
8104;SDS011;4095;48.942;9.104;2023-06-22T08:54:21;5.38;;;4.88;;
8104;SDS011;4095;48.942;9.104;2023-06-22T08:56:47;6.53;;;4.95;;
8104;SDS011;4095;48.942;9.104;2023-06-22T08:59:13;6.75;;;5.07;;
8104;SDS011;4095;48.942;9.104;2023-06-22T09:01:38;7.63;;;4.90;;
8104;SDS011;4095;48.942;9.104;2023-06-22T09:04:04;9.38;;;6.10;;
8104;SDS011;4095;48.942;9.104;2023-06-22T09:06:31;8.93;;;5.20;;
8104;SDS011;4095;48.942;9.104;2023-06-22T09:08:57;7.78;;;5.50;;
8104;SDS011;4095;48.942;9.104;2023-06-22T09:11:24;8.50;;;4.88;;
8104;SDS011;4095;48.942;9.104;2023-06-22T09:13:50;7.45;;;5.13;;
8104;SDS011;4095;48.942;9.104;2023-06-22T09:16:17;7.90;;;5.55;;
8104;SDS011;4095;48.942;9.104;2023-06-22T09:18:45;6.00;;;5.10;;
8104;SDS011;4095;48.942;9.104;2023-06-22T09:21:12;8.73;;;5.40;;
8104;SDS011;4095;48.942;9.104;2023-06-22T09:23:38;8.52;;;4.88;;
8104;SDS011;4095;48.942;9.104;2023-06-22T09:26:03;9.50;;;5.22;;
8104;SDS011;4095;48.942;9.104;2023-06-22T09:28:29;7.35;;;5.32;;
8104;SDS011;4095;48.942;9.104;2023-06-22T09:30:54;5.90;;;5.32;;
8104;SDS011;4095;48.942;9.104;2023-06-22T09:33:23;6.30;;;4.75;;
8104;SDS011;4095;48.942;9.104;2023-06-22T09:35:49;9.52;;;5.55;;
8104;SDS011;4095;48.942;9.104;2023-06-22T09:38:15;8.40;;;5.40;;
8104;SDS011;4095;48.942;9.104;2023-06-22T09:40:41;7.38;;;4.80;;
8104;SDS011;4095;48.942;9.104;2023-06-22T09:43:07;6.30;;;4.90;;
8104;SDS011;4095;48.942;9.104;2023-06-22T09:45:33;6.03;;;4.80;;
8104;SDS011;4095;48.942;9.104;2023-06-22T09:47:58;7.60;;;4.90;;
8104;SDS011;4095;48.942;9.104;2023-06-22T09:50:24;6.82;;;4.95;;
8104;SDS011;4095;48.942;9.104;2023-06-22T09:52:49;7.97;;;4.90;;
8104;SDS011;4095;48.942;9.104;2023-06-22T09:55:19;7.97;;;5.05;;
8104;SDS011;4095;48.942;9.104;2023-06-22T09:57:45;6.35;;;4.68;;
8104;SDS011;4095;48.942;9.104;2023-06-22T10:00:11;7.65;;;5.03;;
8104;SDS011;4095;48.942;9.104;2023-06-22T10:02:43;8.45;;;4.82;;
8104;SDS011;4095;48.942;9.104;2023-06-22T10:05:09;8.10;;;4.95;;
8104;SDS011;4095;48.942;9.104;2023-06-22T10:07:34;6.72;;;4.93;;
8104;SDS011;4095;48.942;9.104;2023-06-22T10:10:05;8.50;;;5.13;;
8104;SDS011;4095;48.942;9.104;2023-06-22T10:12:31;7.38;;;4.95;;
8104;SDS011;4095;48.942;9.104;2023-06-22T10:14:57;8.07;;;5.30;;
8104;SDS011;4095;48.942;9.104;2023-06-22T10:17:22;7.30;;;5.05;;
8104;SDS011;4095;48.942;9.104;2023-06-22T10:19:48;6.55;;;4.93;;
8104;SDS011;4095;48.942;9.104;2023-06-22T10:22:13;8.15;;;4.63;;
8104;SDS011;4095;48.942;9.104;2023-06-22T10:24:39;7.75;;;5.15;;
8104;SDS011;4095;48.942;9.104;2023-06-22T10:27:09;8.00;;;5.32;;
8104;SDS011;4095;48.942;9.104;2023-06-22T10:29:35;7.30;;;5.15;;
8104;SDS011;4095;48.942;9.104;2023-06-22T10:32:01;7.30;;;5.00;;
8104;SDS011;4095;48.942;9.104;2023-06-22T10:34:27;6.60;;;5.05;;
8104;SDS011;4095;48.942;9.104;2023-06-22T10:36:52;7.60;;;4.78;;
8104;SDS011;4095;48.942;9.104;2023-06-22T10:39:18;5.63;;;4.95;;
8104;SDS011;4095;48.942;9.104;2023-06-22T10:41:44;8.60;;;5.22;;
8104;SDS011;4095;48.942;9.104;2023-06-22T10:44:09;9.48;;;5.65;;
8104;SDS011;4095;48.942;9.104;2023-06-22T10:46:35;10.68;;;5.25;;
8104;SDS011;4095;48.942;9.104;2023-06-22T10:49:01;8.05;;;5.25;;
8104;SDS011;4095;48.942;9.104;2023-06-22T10:51:26;7.30;;;5.30;;
8104;SDS011;4095;48.942;9.104;2023-06-22T10:53:53;7.53;;;5.35;;
8104;SDS011;4095;48.942;9.104;2023-06-22T10:56:18;7.03;;;5.10;;
8104;SDS011;4095;48.942;9.104;2023-06-22T10:58:44;6.93;;;5.10;;
8104;SDS011;4095;48.942;9.104;2023-06-22T11:01:10;6.75;;;4.85;;
8104;SDS011;4095;48.942;9.104;2023-06-22T11:03:36;8.63;;;5.25;;
8104;SDS011;4095;48.942;9.104;2023-06-22T11:06:01;7.80;;;4.95;;
8104;SDS011;4095;48.942;9.104;2023-06-22T11:08:27;9.80;;;4.93;;
8104;SDS011;4095;48.942;9.104;2023-06-22T11:10:53;7.55;;;4.93;;
8104;SDS011;4095;48.942;9.104;2023-06-22T11:13:18;8.35;;;5.03;;
8104;SDS011;4095;48.942;9.104;2023-06-22T11:15:44;6.72;;;4.78;;
8104;SDS011;4095;48.942;9.104;2023-06-22T11:18:09;9.25;;;4.57;;
8104;SDS011;4095;48.942;9.104;2023-06-22T11:20:35;6.57;;;4.72;;
8104;SDS011;4095;48.942;9.104;2023-06-22T11:23:04;9.45;;;4.65;;
8104;SDS011;4095;48.942;9.104;2023-06-22T11:25:31;7.25;;;4.80;;
8104;SDS011;4095;48.942;9.104;2023-06-22T11:27:57;9.20;;;4.57;;
8104;SDS011;4095;48.942;9.104;2023-06-22T11:30:22;9.63;;;4.97;;
8104;SDS011;4095;48.942;9.104;2023-06-22T11:32:48;7.70;;;4.90;;
8104;SDS011;4095;48.942;9.104;2023-06-22T11:35:14;6.47;;;4.30;;
8104;SDS011;4095;48.942;9.104;2023-06-22T11:37:39;7.85;;;4.85;;
8104;SDS011;4095;48.942;9.104;2023-06-22T11:40:05;6.72;;;4.90;;
8104;SDS011;4095;48.942;9.104;2023-06-22T11:42:34;8.07;;;5.13;;
8104;SDS011;4095;48.942;9.104;2023-06-22T11:44:59;5.97;;;4.60;;
8104;SDS011;4095;48.942;9.104;2023-06-22T11:47:25;7.82;;;4.97;;
8104;SDS011;4095;48.942;9.104;2023-06-22T11:49:50;10.15;;;4.32;;
8104;SDS011;4095;48.942;9.104;2023-06-22T11:52:16;7.50;;;4.55;;
8104;SDS011;4095;48.942;9.104;2023-06-22T11:54:42;7.40;;;4.78;;
8104;SDS011;4095;48.942;9.104;2023-06-22T11:57:08;7.93;;;4.82;;
8104;SDS011;4095;48.942;9.104;2023-06-22T11:59:34;9.98;;;4.75;;
8104;SDS011;4095;48.942;9.104;2023-06-22T12:01:59;7.32;;;4.70;;
8104;SDS011;4095;48.942;9.104;2023-06-22T12:04:25;10.00;;;4.20;;
8104;SDS011;4095;48.942;9.104;2023-06-22T12:06:50;8.13;;;4.65;;
8104;SDS011;4095;48.942;9.104;2023-06-22T12:09:16;8.73;;;5.40;;
8104;SDS011;4095;48.942;9.104;2023-06-22T12:11:41;7.35;;;4.60;;
8104;SDS011;4095;48.942;9.104;2023-06-22T12:14:07;7.13;;;5.03;;
8104;SDS011;4095;48.942;9.104;2023-06-22T12:16:33;8.35;;;5.20;;
8104;SDS011;4095;48.942;9.104;2023-06-22T12:18:58;8.65;;;4.95;;
8104;SDS011;4095;48.942;9.104;2023-06-22T12:21:24;7.13;;;5.05;;
8104;SDS011;4095;48.942;9.104;2023-06-22T12:23:49;9.50;;;5.13;;
8104;SDS011;4095;48.942;9.104;2023-06-22T12:26:15;10.07;;;4.82;;
8104;SDS011;4095;48.942;9.104;2023-06-22T12:28:41;8.25;;;4.65;;
8104;SDS011;4095;48.942;9.104;2023-06-22T12:31:07;8.45;;;4.80;;
8104;SDS011;4095;48.942;9.104;2023-06-22T12:33:32;9.63;;;5.10;;
8104;SDS011;4095;48.942;9.104;2023-06-22T12:35:58;8.82;;;4.95;;
8104;SDS011;4095;48.942;9.104;2023-06-22T12:38:23;7.47;;;5.22;;
8104;SDS011;4095;48.942;9.104;2023-06-22T12:40:50;7.40;;;4.63;;
8104;SDS011;4095;48.942;9.104;2023-06-22T12:43:16;7.72;;;4.97;;
8104;SDS011;4095;48.942;9.104;2023-06-22T12:45:42;8.05;;;4.80;;
8104;SDS011;4095;48.942;9.104;2023-06-22T12:48:07;8.82;;;4.78;;
8104;SDS011;4095;48.942;9.104;2023-06-22T12:50:33;6.68;;;4.63;;
8104;SDS011;4095;48.942;9.104;2023-06-22T12:52:59;11.85;;;4.60;;
8104;SDS011;4095;48.942;9.104;2023-06-22T12:55:27;8.07;;;5.35;;
8104;SDS011;4095;48.942;9.104;2023-06-22T12:57:52;7.15;;;5.13;;
8104;SDS011;4095;48.942;9.104;2023-06-22T13:00:18;8.38;;;5.40;;
8104;SDS011;4095;48.942;9.104;2023-06-22T13:02:44;6.75;;;4.82;;
8104;SDS011;4095;48.942;9.104;2023-06-22T13:05:10;8.43;;;4.45;;
8104;SDS011;4095;48.942;9.104;2023-06-22T13:07:36;9.00;;;4.95;;
8104;SDS011;4095;48.942;9.104;2023-06-22T13:10:01;10.75;;;5.10;;
8104;SDS011;4095;48.942;9.104;2023-06-22T13:12:27;7.53;;;4.63;;
8104;SDS011;4095;48.942;9.104;2023-06-22T13:14:53;10.98;;;5.18;;
8104;SDS011;4095;48.942;9.104;2023-06-22T13:17:19;9.18;;;5.38;;
8104;SDS011;4095;48.942;9.104;2023-06-22T13:19:45;11.48;;;4.70;;
8104;SDS011;4095;48.942;9.104;2023-06-22T13:24:56;11.80;;;5.20;;
8104;SDS011;4095;48.942;9.104;2023-06-22T13:27:22;7.80;;;5.18;;
8104;SDS011;4095;48.942;9.104;2023-06-22T13:29:48;11.43;;;5.80;;
8104;SDS011;4095;48.942;9.104;2023-06-22T13:32:14;9.32;;;5.20;;
8104;SDS011;4095;48.942;9.104;2023-06-22T13:34:39;8.07;;;5.28;;
8104;SDS011;4095;48.942;9.104;2023-06-22T13:37:05;8.80;;;4.72;;
8104;SDS011;4095;48.942;9.104;2023-06-22T13:39:31;12.63;;;5.40;;
8104;SDS011;4095;48.942;9.104;2023-06-22T13:41:57;9.02;;;5.18;;
8104;SDS011;4095;48.942;9.104;2023-06-22T13:44:23;9.40;;;4.93;;
8104;SDS011;4095;48.942;9.104;2023-06-22T13:46:52;12.05;;;5.50;;
8104;SDS011;4095;48.942;9.104;2023-06-22T13:49:18;10.23;;;5.63;;
8104;SDS011;4095;48.942;9.104;2023-06-22T13:51:43;11.05;;;5.50;;
8104;SDS011;4095;48.942;9.104;2023-06-22T13:54:09;10.05;;;5.80;;
8104;SDS011;4095;48.942;9.104;2023-06-22T13:56:35;10.60;;;5.32;;
8104;SDS011;4095;48.942;9.104;2023-06-22T13:59:00;12.85;;;5.45;;
8104;SDS011;4095;48.942;9.104;2023-06-22T14:01:26;11.95;;;5.63;;
8104;SDS011;4095;48.942;9.104;2023-06-22T14:03:51;9.57;;;5.20;;
8104;SDS011;4095;48.942;9.104;2023-06-22T14:06:17;8.20;;;5.13;;
8104;SDS011;4095;48.942;9.104;2023-06-22T14:08:42;12.75;;;5.20;;
8104;SDS011;4095;48.942;9.104;2023-06-22T14:11:08;12.40;;;5.60;;
8104;SDS011;4095;48.942;9.104;2023-06-22T14:13:34;10.18;;;5.93;;
8104;SDS011;4095;48.942;9.104;2023-06-22T14:16:00;18.65;;;11.45;;
8104;SDS011;4095;48.942;9.104;2023-06-22T14:18:26;15.52;;;9.25;;
8104;SDS011;4095;48.942;9.104;2023-06-22T14:20:52;13.25;;;6.65;;
8104;SDS011;4095;48.942;9.104;2023-06-22T14:23:17;8.30;;;5.70;;
8104;SDS011;4095;48.942;9.104;2023-06-22T14:25:43;9.63;;;5.60;;
8104;SDS011;4095;48.942;9.104;2023-06-22T14:28:08;9.88;;;5.40;;
8104;SDS011;4095;48.942;9.104;2023-06-22T14:30:34;12.02;;;5.35;;
8104;SDS011;4095;48.942;9.104;2023-06-22T14:33:00;9.07;;;5.07;;
8104;SDS011;4095;48.942;9.104;2023-06-22T14:35:25;9.90;;;5.47;;
8104;SDS011;4095;48.942;9.104;2023-06-22T14:37:51;11.02;;;5.60;;
8104;SDS011;4095;48.942;9.104;2023-06-22T14:40:16;10.57;;;5.43;;
8104;SDS011;4095;48.942;9.104;2023-06-22T14:42:42;10.13;;;5.63;;
8104;SDS011;4095;48.942;9.104;2023-06-22T14:45:07;10.90;;;5.78;;
8104;SDS011;4095;48.942;9.104;2023-06-22T14:47:33;10.85;;;5.60;;
8104;SDS011;4095;48.942;9.104;2023-06-22T14:49:59;8.15;;;5.18;;
8104;SDS011;4095;48.942;9.104;2023-06-22T14:52:28;15.75;;;5.57;;
8104;SDS011;4095;48.942;9.104;2023-06-22T14:54:54;12.07;;;5.32;;
8104;SDS011;4095;48.942;9.104;2023-06-22T14:57:20;8.07;;;4.85;;
8104;SDS011;4095;48.942;9.104;2023-06-22T14:59:47;8.95;;;4.07;;
8104;SDS011;4095;48.942;9.104;2023-06-22T15:02:14;12.02;;;4.00;;
8104;SDS011;4095;48.942;9.104;2023-06-22T15:04:39;9.95;;;3.67;;
8104;SDS011;4095;48.942;9.104;2023-06-22T15:07:05;10.35;;;3.47;;
8104;SDS011;4095;48.942;9.104;2023-06-22T15:09:31;13.23;;;3.25;;
8104;SDS011;4095;48.942;9.104;2023-06-22T15:11:57;10.07;;;3.40;;
8104;SDS011;4095;48.942;9.104;2023-06-22T15:14:23;11.65;;;4.10;;
8104;SDS011;4095;48.942;9.104;2023-06-22T15:16:49;13.65;;;4.03;;
8104;SDS011;4095;48.942;9.104;2023-06-22T15:19:15;10.38;;;3.90;;
8104;SDS011;4095;48.942;9.104;2023-06-22T15:21:40;7.40;;;3.22;;